createdAt,value
2022-09-06T00:00:03.017Z,14.48
2022-09-06T00:00:26.542Z,14.85
2022-09-06T00:00:49.389Z,14.43
2022-09-06T00:01:13.114Z,14.93
2022-09-06T00:01:35.951Z,14.75
2022-09-06T00:01:58.904Z,14.40
2022-09-06T00:02:21.857Z,14.70
2022-09-06T00:02:45.403Z,14.50
2022-09-06T00:03:11.308Z,14.95
2022-09-06T00:03:34.246Z,14.98
2022-09-06T00:03:57.203Z,15.52
2022-09-06T00:04:20.091Z,15.48
2022-09-06T00:04:43.149Z,15.90
2022-09-06T00:05:08.389Z,15.57
2022-09-06T00:05:31.735Z,15.55
2022-09-06T00:05:54.651Z,15.45
2022-09-06T00:06:18.929Z,15.95
2022-09-06T00:06:41.799Z,15.68
2022-09-06T00:07:05.504Z,15.80
2022-09-06T00:07:28.283Z,16.08
2022-09-06T00:07:51.128Z,15.73
2022-09-06T00:08:14.945Z,15.50
2022-09-06T00:08:37.798Z,16.27
2022-09-06T00:09:00.794Z,16.67
2022-09-06T00:09:23.684Z,15.93
2022-09-06T00:09:46.503Z,16.23
2022-09-06T00:10:10.404Z,16.88
2022-09-06T00:10:33.659Z,16.42
2022-09-06T00:11:01.158Z,15.75
2022-09-06T00:11:24.668Z,16.35
2022-09-06T00:11:47.464Z,16.38
2022-09-06T00:12:10.282Z,16.20
2022-09-06T00:12:33.127Z,16.10
2022-09-06T00:12:55.914Z,16.33
2022-09-06T00:13:18.663Z,15.98
2022-09-06T00:13:41.452Z,15.98
2022-09-06T00:14:04.662Z,16.60
2022-09-06T00:14:27.508Z,16.00
2022-09-06T00:14:50.378Z,15.77
2022-09-06T00:15:13.282Z,15.93
2022-09-06T00:15:36.266Z,16.10
2022-09-06T00:16:06.170Z,15.15
2022-09-06T00:16:30.561Z,15.95
2022-09-06T00:16:54.124Z,16.02
2022-09-06T00:17:17.003Z,16.27
2022-09-06T00:17:39.801Z,15.55
2022-09-06T00:18:03.903Z,15.85
2022-09-06T00:18:26.790Z,15.55
2022-09-06T00:18:49.676Z,16.27
2022-09-06T00:19:12.473Z,16.02
2022-09-06T00:19:35.257Z,16.17
2022-09-06T00:19:58.042Z,15.60
2022-09-06T00:20:22.371Z,16.02
2022-09-06T00:20:45.176Z,16.35
2022-09-06T00:21:15.842Z,16.02
2022-09-06T00:21:38.761Z,15.30
2022-09-06T00:22:01.547Z,15.60
2022-09-06T00:22:24.424Z,15.30
2022-09-06T00:22:47.256Z,15.77
2022-09-06T00:23:10.063Z,15.70
2022-09-06T00:23:32.854Z,15.77
2022-09-06T00:23:55.721Z,15.68
2022-09-06T00:24:18.533Z,15.38
2022-09-06T00:24:41.241Z,15.25
2022-09-06T00:25:06.153Z,15.45
2022-09-06T00:25:29.543Z,15.43
2022-09-06T00:25:52.333Z,15.00
2022-09-06T00:26:15.232Z,14.90
2022-09-06T00:26:38.028Z,14.27
2022-09-06T00:27:01.011Z,15.55
2022-09-06T00:27:23.898Z,15.02
2022-09-06T00:27:46.720Z,15.27
2022-09-06T00:28:09.568Z,15.07
2022-09-06T00:28:32.304Z,15.40
2022-09-06T00:28:55.138Z,14.68
2022-09-06T00:29:17.978Z,15.10
2022-09-06T00:29:40.778Z,15.38
2022-09-06T00:30:04.792Z,15.27
2022-09-06T00:30:27.728Z,15.23
2022-09-06T00:30:50.755Z,15.20
2022-09-06T00:31:15.363Z,15.48
2022-09-06T00:31:38.224Z,14.55
2022-09-06T00:32:01.135Z,14.60
2022-09-06T00:32:23.898Z,14.60
2022-09-06T00:32:46.684Z,14.40
2022-09-06T00:33:09.499Z,14.68
2022-09-06T00:33:32.284Z,14.70
2022-09-06T00:33:55.149Z,14.10
2022-09-06T00:34:17.974Z,15.25
2022-09-06T00:34:40.759Z,15.10
2022-09-06T00:35:06.972Z,14.45
2022-09-06T00:35:31.246Z,14.15
2022-09-06T00:35:59.901Z,14.52
2022-09-06T00:36:22.763Z,14.82
2022-09-06T00:36:45.526Z,14.45
2022-09-06T00:37:08.393Z,14.10
2022-09-06T00:37:31.172Z,14.65
2022-09-06T00:37:57.032Z,15.18
2022-09-06T00:38:19.797Z,15.30
2022-09-06T00:38:42.763Z,15.15
2022-09-06T00:39:05.556Z,14.60
2022-09-06T00:39:28.520Z,14.75
2022-09-06T00:39:51.520Z,15.43
2022-09-06T00:40:14.487Z,15.13
2022-09-06T00:40:37.479Z,15.43
2022-09-06T00:41:00.289Z,15.25
2022-09-06T00:41:23.162Z,15.00
2022-09-06T00:41:45.884Z,15.00
2022-09-06T00:42:09.190Z,15.10
2022-09-06T00:42:32.018Z,14.77
2022-09-06T00:42:54.804Z,14.65
2022-09-06T00:43:17.638Z,14.73
2022-09-06T00:43:40.649Z,14.80
2022-09-06T00:44:03.810Z,14.95
2022-09-06T00:44:26.648Z,15.20
2022-09-06T00:44:49.764Z,15.65
2022-09-06T00:45:12.854Z,15.73
2022-09-06T00:45:35.624Z,15.73
2022-09-06T00:45:58.521Z,15.82
2022-09-06T00:46:23.198Z,16.52
2022-09-06T00:46:46.603Z,16.45
2022-09-06T00:47:10.245Z,16.73
2022-09-06T00:47:33.060Z,16.20
2022-09-06T00:47:55.938Z,15.60
2022-09-06T00:48:18.829Z,15.88
2022-09-06T00:48:41.739Z,15.93
2022-09-06T00:49:06.975Z,16.58
2022-09-06T00:49:31.916Z,16.95
2022-09-06T00:49:55.894Z,16.92
2022-09-06T00:50:18.765Z,16.52
2022-09-06T00:50:42.972Z,17.73
2022-09-06T00:51:07.905Z,17.73
2022-09-06T00:51:30.857Z,16.13
2022-09-06T00:51:55.579Z,16.67
2022-09-06T00:52:19.956Z,16.63
2022-09-06T00:52:43.116Z,16.30
2022-09-06T00:53:06.093Z,16.10
2022-09-06T00:53:28.939Z,16.20
2022-09-06T00:53:51.792Z,15.82
2022-09-06T00:54:14.667Z,15.98
2022-09-06T00:54:37.497Z,15.65
2022-09-06T00:55:00.321Z,15.45
2022-09-06T00:55:24.717Z,15.98
2022-09-06T00:55:48.942Z,15.68
2022-09-06T00:56:11.761Z,15.60
2022-09-06T00:56:34.861Z,16.20
2022-09-06T00:56:57.835Z,16.45
2022-09-06T00:57:20.763Z,15.65
2022-09-06T00:57:43.640Z,15.38
2022-09-06T00:58:06.616Z,16.05
2022-09-06T00:58:29.424Z,16.27
2022-09-06T00:58:52.284Z,16.02
2022-09-06T00:59:15.121Z,15.93
2022-09-06T00:59:38.548Z,16.33
2022-09-06T01:00:01.603Z,16.02
2022-09-06T01:00:24.408Z,15.63
2022-09-06T01:00:47.259Z,15.95
2022-09-06T01:01:10.178Z,15.98
2022-09-06T01:01:33.591Z,15.75
2022-09-06T01:01:56.651Z,16.02
2022-09-06T01:02:20.351Z,16.25
2022-09-06T01:02:43.861Z,15.73
2022-09-06T01:03:06.993Z,16.00
2022-09-06T01:03:29.823Z,16.05
2022-09-06T01:03:52.833Z,15.27
2022-09-06T01:04:18.362Z,15.43
2022-09-06T01:04:42.056Z,15.85
2022-09-06T01:05:06.818Z,15.90
2022-09-06T01:05:33.563Z,14.95
2022-09-06T01:06:04.103Z,15.80
2022-09-06T01:06:29.351Z,15.35
2022-09-06T01:06:56.390Z,15.82
2022-09-06T01:07:24.528Z,15.55
2022-09-06T01:08:00.209Z,15.93
2022-09-06T01:08:28.083Z,15.00
2022-09-06T01:08:59.778Z,15.93
2022-09-06T01:09:30.447Z,15.73
2022-09-06T01:10:00.377Z,16.00
2022-09-06T01:10:32.147Z,15.88
2022-09-06T01:11:06.317Z,16.55
2022-09-06T01:11:48.292Z,16.40
2022-09-06T01:12:19.897Z,17.95
2022-09-06T01:12:46.623Z,16.98
2022-09-06T01:13:17.135Z,16.52
2022-09-06T01:13:45.331Z,17.50
2022-09-06T01:14:13.205Z,17.23
2022-09-06T01:14:43.686Z,17.05
2022-09-06T01:15:13.073Z,17.17
2022-09-06T01:15:39.005Z,17.05
2022-09-06T01:16:07.046Z,17.83
2022-09-06T01:16:35.642Z,18.15
2022-09-06T01:17:03.159Z,18.08
2022-09-06T01:17:29.250Z,17.52
2022-09-06T01:17:59.215Z,17.40
2022-09-06T01:18:29.176Z,17.13
2022-09-06T01:19:01.833Z,16.90
2022-09-06T01:20:01.174Z,16.65
2022-09-06T01:20:39.481Z,16.50
2022-09-06T01:21:14.797Z,15.85
2022-09-06T01:21:43.879Z,16.30
2022-09-06T01:22:13.489Z,15.73
2022-09-06T01:23:05.764Z,15.88
2022-09-06T01:23:48.773Z,15.48
2022-09-06T01:24:51.728Z,15.43
2022-09-06T01:25:25.806Z,15.75
2022-09-06T01:25:56.013Z,15.90
2022-09-06T01:26:35.954Z,15.68
2022-09-06T01:27:21.179Z,15.25
2022-09-06T01:28:25.636Z,15.70
2022-09-06T01:28:50.780Z,15.68
2022-09-06T01:29:14.610Z,15.70
2022-09-06T01:29:39.598Z,15.15
2022-09-06T01:30:05.341Z,15.32
2022-09-06T01:30:28.129Z,15.30
2022-09-06T01:30:52.598Z,16.25
2022-09-06T01:31:20.930Z,15.68
2022-09-06T01:31:45.643Z,16.15
2022-09-06T01:32:12.580Z,16.60
2022-09-06T01:32:40.424Z,15.75
2022-09-06T01:33:07.289Z,15.18
2022-09-06T01:33:32.873Z,15.52
2022-09-06T01:34:07.810Z,15.43
2022-09-06T01:34:34.349Z,16.00
2022-09-06T01:35:01.506Z,15.80
2022-09-06T01:35:29.178Z,15.35
2022-09-06T01:35:53.649Z,15.65
2022-09-06T01:36:18.744Z,15.75
2022-09-06T01:37:06.208Z,15.02
2022-09-06T01:37:25.868Z,15.13
2022-09-06T01:37:48.740Z,15.15
2022-09-06T01:38:13.272Z,15.32
2022-09-06T01:38:36.152Z,14.57
2022-09-06T01:38:58.929Z,14.73
2022-09-06T01:39:24.702Z,15.35
2022-09-06T01:39:47.678Z,15.32
2022-09-06T01:40:10.613Z,15.13
2022-09-06T01:40:36.578Z,16.00
2022-09-06T01:40:59.492Z,15.57
2022-09-06T01:41:22.418Z,14.93
2022-09-06T01:41:45.173Z,15.25
2022-09-06T01:42:10.617Z,14.98
2022-09-06T01:42:33.461Z,14.80
2022-09-06T01:42:56.314Z,15.00
2022-09-06T01:43:21.701Z,15.85
2022-09-06T01:43:46.326Z,15.88
2022-09-06T01:44:10.621Z,15.15
2022-09-06T01:44:33.461Z,15.52
2022-09-06T01:44:58.320Z,15.40
2022-09-06T01:45:22.296Z,15.43
2022-09-06T01:45:49.997Z,15.50
2022-09-06T01:46:15.771Z,15.80
2022-09-06T01:46:41.380Z,15.45
2022-09-06T01:47:09.485Z,15.10
2022-09-06T01:47:38.435Z,15.38
2022-09-06T01:48:05.379Z,15.18
2022-09-06T01:48:34.128Z,15.27
2022-09-06T01:49:08.532Z,15.77
2022-09-06T01:49:38.340Z,16.05
2022-09-06T01:50:16.380Z,16.30
2022-09-06T01:50:54.916Z,16.38
2022-09-06T01:51:20.833Z,15.50
2022-09-06T01:51:50.487Z,16.70
2022-09-06T01:52:16.115Z,17.17
2022-09-06T01:52:42.321Z,17.25
2022-09-06T01:53:16.879Z,17.20
2022-09-06T01:54:11.557Z,18.30
2022-09-06T01:54:45.936Z,17.67
2022-09-06T01:55:16.215Z,18.23
2022-09-06T01:55:44.543Z,18.90
2022-09-06T01:56:10.354Z,18.58
2022-09-06T01:56:37.640Z,18.30
2022-09-06T01:57:09.165Z,18.42
2022-09-06T01:57:49.280Z,17.67
2022-09-06T01:58:31.446Z,17.95
2022-09-06T01:59:12.742Z,17.50
2022-09-06T01:59:58.221Z,17.35
2022-09-06T02:00:22.649Z,16.85
2022-09-06T02:00:47.850Z,17.00
2022-09-06T02:01:14.430Z,17.00
2022-09-06T02:01:39.710Z,16.52
2022-09-06T02:02:05.882Z,16.33
2022-09-06T02:02:34.151Z,17.00
2022-09-06T02:03:05.816Z,16.77
2022-09-06T02:03:31.901Z,17.55
2022-09-06T02:03:58.270Z,17.42
2022-09-06T02:04:23.172Z,17.67
2022-09-06T02:04:47.281Z,17.58
2022-09-06T02:05:13.995Z,17.30
2022-09-06T02:05:39.931Z,18.00
2022-09-06T02:06:05.808Z,17.92
2022-09-06T02:06:30.125Z,18.10
2022-09-06T02:06:54.931Z,18.08
2022-09-06T02:07:20.520Z,18.27
2022-09-06T02:07:43.410Z,17.92
2022-09-06T02:08:09.984Z,17.40
2022-09-06T02:08:34.946Z,17.80
2022-09-06T02:09:01.331Z,17.63
2022-09-06T02:09:25.565Z,18.25
2022-09-06T02:09:50.160Z,17.48
2022-09-06T02:10:16.663Z,17.65
2022-09-06T02:10:41.672Z,16.77
2022-09-06T02:11:06.785Z,17.50
2022-09-06T02:11:29.655Z,18.00
2022-09-06T02:11:54.298Z,17.75
2022-09-06T02:12:17.790Z,17.65
2022-09-06T02:12:41.660Z,17.63
2022-09-06T02:13:06.171Z,17.55
2022-09-06T02:13:31.928Z,17.30
2022-09-06T02:13:56.915Z,17.38
2022-09-06T02:14:23.218Z,17.10
2022-09-06T02:14:50.771Z,16.90
2022-09-06T02:15:15.251Z,17.30
2022-09-06T02:15:39.421Z,16.77
2022-09-06T02:16:03.243Z,17.77
2022-09-06T02:16:27.016Z,17.92
2022-09-06T02:16:50.049Z,17.58
2022-09-06T02:17:13.785Z,16.75
2022-09-06T02:17:39.897Z,17.10
2022-09-06T02:18:05.215Z,17.05
2022-09-06T02:18:30.459Z,17.30
2022-09-06T02:18:54.741Z,18.02
2022-09-06T02:19:20.797Z,17.55
2022-09-06T02:19:46.362Z,18.05
2022-09-06T02:20:10.942Z,17.77
2022-09-06T02:20:35.703Z,17.50
2022-09-06T02:20:58.759Z,17.70
2022-09-06T02:21:23.960Z,18.10
2022-09-06T02:21:46.901Z,18.38
2022-09-06T02:22:10.701Z,17.92
2022-09-06T02:22:35.310Z,17.52
2022-09-06T02:22:59.785Z,17.92
2022-09-06T02:23:24.391Z,18.00
2022-09-06T02:23:47.154Z,18.38
2022-09-06T02:24:10.769Z,18.10
2022-09-06T02:24:33.564Z,17.67
2022-09-06T02:24:56.669Z,18.05
2022-09-06T02:25:22.797Z,17.40
2022-09-06T02:25:49.844Z,17.23
2022-09-06T02:26:14.233Z,17.20
2022-09-06T02:26:38.458Z,16.63
2022-09-06T02:27:01.298Z,17.00
2022-09-06T02:27:24.338Z,16.98
2022-09-06T02:27:47.273Z,16.90
2022-09-06T02:28:10.088Z,16.90
2022-09-06T02:28:32.884Z,17.33
2022-09-06T02:28:55.720Z,16.65
2022-09-06T02:29:18.566Z,16.77
2022-09-06T02:29:42.828Z,16.75
2022-09-06T02:30:06.484Z,16.48
2022-09-06T02:30:29.348Z,17.10
2022-09-06T02:30:54.620Z,16.77
2022-09-06T02:31:18.906Z,16.42
2022-09-06T02:31:43.794Z,16.10
2022-09-06T02:32:08.856Z,16.50
2022-09-06T02:32:31.899Z,16.27
2022-09-06T02:32:57.643Z,16.98
2022-09-06T02:33:21.432Z,16.88
2022-09-06T02:33:44.831Z,16.83
2022-09-06T02:34:07.737Z,17.50
2022-09-06T02:34:30.957Z,16.60
2022-09-06T02:34:55.154Z,17.17
2022-09-06T02:35:18.033Z,16.75
2022-09-06T02:35:44.808Z,16.75
2022-09-06T02:36:08.512Z,17.50
2022-09-06T02:36:31.412Z,17.52
2022-09-06T02:36:55.101Z,17.95
2022-09-06T02:37:17.997Z,17.17
2022-09-06T02:37:40.981Z,17.30
2022-09-06T02:38:03.831Z,17.25
2022-09-06T02:38:27.277Z,16.35
2022-09-06T02:38:50.726Z,16.75
2022-09-06T02:39:13.563Z,17.05
2022-09-06T02:39:36.364Z,16.95
2022-09-06T02:40:00.629Z,16.90
2022-09-06T02:40:23.497Z,16.67
2022-09-06T02:40:46.452Z,17.33
2022-09-06T02:41:09.276Z,16.73
2022-09-06T02:41:32.053Z,16.35
2022-09-06T02:41:54.852Z,16.00
2022-09-06T02:42:17.725Z,16.58
2022-09-06T02:42:40.871Z,16.48
2022-09-06T02:43:03.717Z,16.30
2022-09-06T02:43:27.257Z,16.05
2022-09-06T02:43:50.067Z,15.48
2022-09-06T02:44:12.926Z,16.02
2022-09-06T02:44:35.799Z,16.17
2022-09-06T02:45:00.107Z,16.15
2022-09-06T02:45:22.960Z,15.80
2022-09-06T02:45:45.861Z,16.08
2022-09-06T02:46:09.126Z,16.30
2022-09-06T02:46:32.024Z,16.17
2022-09-06T02:46:57.139Z,16.52
2022-09-06T02:47:20.237Z,16.85
2022-09-06T02:47:43.421Z,16.15
2022-09-06T02:48:06.461Z,16.50
2022-09-06T02:48:29.347Z,16.77
2022-09-06T02:48:52.231Z,16.80
2022-09-06T02:49:15.081Z,16.23
2022-09-06T02:49:37.981Z,16.05
2022-09-06T02:50:01.197Z,16.17
2022-09-06T02:50:23.986Z,16.80
2022-09-06T02:50:46.806Z,16.60
2022-09-06T02:51:09.901Z,16.45
2022-09-06T02:51:37.512Z,15.88
2022-09-06T02:52:00.424Z,16.65
2022-09-06T02:52:23.245Z,16.60
2022-09-06T02:52:46.129Z,16.05
2022-09-06T02:53:10.523Z,16.02
2022-09-06T02:53:33.999Z,17.00
2022-09-06T02:53:57.055Z,16.95
2022-09-06T02:54:19.833Z,16.85
2022-09-06T02:54:42.675Z,16.50
2022-09-06T02:55:07.420Z,16.92
2022-09-06T02:55:30.356Z,16.10
2022-09-06T02:55:53.159Z,16.38
2022-09-06T02:56:16.096Z,16.55
2022-09-06T02:56:38.993Z,16.55
2022-09-06T02:57:01.734Z,16.85
2022-09-06T02:57:24.789Z,17.00
2022-09-06T02:57:47.674Z,16.42
2022-09-06T02:58:11.547Z,16.10
2022-09-06T02:58:34.808Z,16.33
2022-09-06T02:58:57.709Z,16.25
2022-09-06T02:59:20.567Z,16.35
2022-09-06T02:59:43.408Z,16.40
2022-09-06T03:00:09.449Z,17.13
2022-09-06T03:00:32.269Z,16.98
2022-09-06T03:00:55.054Z,16.95
2022-09-06T03:01:18.418Z,17.58
2022-09-06T03:01:41.297Z,17.95
2022-09-06T03:02:04.206Z,17.85
2022-09-06T03:02:27.322Z,17.50
2022-09-06T03:02:50.211Z,17.58
2022-09-06T03:03:13.091Z,17.58
2022-09-06T03:03:35.925Z,17.70
2022-09-06T03:03:58.736Z,17.80
2022-09-06T03:04:21.658Z,17.75
2022-09-06T03:04:44.527Z,17.15
2022-09-06T03:05:08.056Z,17.27
2022-09-06T03:05:30.851Z,17.67
2022-09-06T03:05:53.900Z,17.45
2022-09-06T03:06:16.766Z,17.55
2022-09-06T03:06:39.575Z,17.60
2022-09-06T03:07:02.389Z,17.63
2022-09-06T03:07:25.329Z,16.73
2022-09-06T03:07:48.188Z,17.08
2022-09-06T03:08:11.083Z,17.70
2022-09-06T03:08:34.458Z,17.27
2022-09-06T03:08:57.799Z,16.70
2022-09-06T03:09:20.899Z,17.45
2022-09-06T03:09:43.723Z,18.05
2022-09-06T03:10:07.768Z,17.30
2022-09-06T03:10:30.609Z,17.75
2022-09-06T03:10:54.218Z,18.42
2022-09-06T03:11:17.043Z,18.40
2022-09-06T03:11:39.814Z,18.55
2022-09-06T03:12:02.950Z,18.80
2022-09-06T03:12:25.896Z,18.40
2022-09-06T03:12:48.735Z,18.55
2022-09-06T03:13:11.900Z,18.05
2022-09-06T03:13:34.706Z,17.83
2022-09-06T03:13:57.611Z,18.38
2022-09-06T03:14:20.400Z,19.60
2022-09-06T03:14:43.156Z,19.80
2022-09-06T03:15:09.864Z,19.35
2022-09-06T03:15:32.662Z,19.75
2022-09-06T03:15:57.553Z,21.27
2022-09-06T03:16:20.712Z,20.20
2022-09-06T03:16:43.625Z,21.25
2022-09-06T03:17:06.502Z,20.60
2022-09-06T03:17:29.331Z,21.33
2022-09-06T03:17:52.205Z,20.90
2022-09-06T03:18:14.991Z,20.42
2022-09-06T03:18:37.861Z,20.80
2022-09-06T03:19:00.686Z,20.25
2022-09-06T03:19:23.455Z,20.60
2022-09-06T03:19:46.780Z,19.73
2022-09-06T03:20:10.613Z,21.08
2022-09-06T03:20:36.979Z,20.40
2022-09-06T03:21:00.285Z,19.45
2022-09-06T03:21:23.133Z,19.30
2022-09-06T03:21:45.973Z,20.05
2022-09-06T03:22:08.860Z,20.83
2022-09-06T03:22:31.646Z,20.55
2022-09-06T03:22:54.453Z,19.48
2022-09-06T03:23:17.497Z,19.37
2022-09-06T03:23:40.361Z,19.63
2022-09-06T03:24:03.481Z,20.02
2022-09-06T03:24:26.465Z,19.67
2022-09-06T03:24:49.489Z,19.45
2022-09-06T03:25:12.359Z,19.23
2022-09-06T03:25:35.159Z,18.83
2022-09-06T03:25:58.054Z,19.30
2022-09-06T03:26:20.904Z,18.65
2022-09-06T03:26:44.382Z,18.70
2022-09-06T03:27:07.238Z,18.48
2022-09-06T03:27:30.140Z,18.07
2022-09-06T03:27:53.000Z,17.70
2022-09-06T03:28:15.974Z,17.85
2022-09-06T03:28:39.570Z,18.35
2022-09-06T03:29:02.422Z,18.70
2022-09-06T03:29:25.325Z,18.92
2022-09-06T03:29:48.577Z,19.20
2022-09-06T03:30:14.005Z,19.23
2022-09-06T03:30:36.833Z,18.65
2022-09-06T03:30:59.835Z,19.20
2022-09-06T03:31:22.749Z,19.48
2022-09-06T03:31:45.576Z,18.98
2022-09-06T03:32:08.433Z,19.25
2022-09-06T03:32:31.248Z,18.63
2022-09-06T03:32:54.287Z,18.98
2022-09-06T03:33:17.168Z,19.23
2022-09-06T03:33:40.114Z,19.88
2022-09-06T03:34:02.889Z,19.73
2022-09-06T03:34:25.825Z,20.75
2022-09-06T03:34:48.667Z,21.50
2022-09-06T03:35:11.913Z,21.63
2022-09-06T03:35:34.667Z,22.45
2022-09-06T03:35:59.452Z,21.63
2022-09-06T03:36:22.632Z,21.13
2022-09-06T03:36:45.427Z,20.70
2022-09-06T03:37:08.332Z,20.98
2022-09-06T03:37:31.168Z,20.63
2022-09-06T03:37:54.251Z,20.27
2022-09-06T03:38:17.532Z,20.70
2022-09-06T03:38:40.362Z,20.50
2022-09-06T03:39:03.237Z,20.38
2022-09-06T03:39:26.045Z,20.30
2022-09-06T03:39:48.978Z,20.33
2022-09-06T03:40:12.267Z,20.13
2022-09-06T03:40:35.114Z,20.55
2022-09-06T03:40:57.997Z,20.40
2022-09-06T03:41:20.822Z,24.38
2022-09-06T03:41:43.608Z,39.13
2022-09-06T03:42:07.096Z,34.10
2022-09-06T03:42:30.321Z,31.08
2022-09-06T03:42:53.100Z,45.47
2022-09-06T03:43:16.165Z,59.13
2022-09-06T03:43:39.010Z,49.92
2022-09-06T03:44:02.090Z,42.20
2022-09-06T03:44:24.880Z,46.25
2022-09-06T03:44:47.701Z,32.38
2022-09-06T03:45:12.599Z,33.70
2022-09-06T03:45:35.431Z,33.60
2022-09-06T03:45:58.646Z,30.77
2022-09-06T03:46:21.491Z,30.05
2022-09-06T03:46:44.700Z,29.70
2022-09-06T03:47:07.542Z,28.85
2022-09-06T03:47:30.472Z,29.23
2022-09-06T03:47:53.327Z,28.00
2022-09-06T03:48:16.202Z,26.55
2022-09-06T03:48:39.169Z,28.02
2022-09-06T03:49:02.309Z,27.02
2022-09-06T03:49:25.119Z,26.08
2022-09-06T03:49:48.089Z,27.52
2022-09-06T03:50:11.043Z,28.95
2022-09-06T03:50:33.814Z,28.63
2022-09-06T03:50:57.829Z,28.05
2022-09-06T03:51:21.174Z,28.25
2022-09-06T03:51:43.949Z,30.67
2022-09-06T03:52:06.815Z,29.38
2022-09-06T03:52:29.609Z,29.13
2022-09-06T03:52:53.564Z,29.60
2022-09-06T03:53:16.834Z,29.02
2022-09-06T03:53:39.892Z,28.17
2022-09-06T03:54:02.763Z,28.42
2022-09-06T03:54:25.828Z,28.08
2022-09-06T03:54:48.603Z,27.75
2022-09-06T03:55:12.231Z,27.42
2022-09-06T03:55:35.033Z,27.73
2022-09-06T03:55:58.319Z,27.40
2022-09-06T03:56:21.182Z,28.65
2022-09-06T03:56:44.054Z,28.60
2022-09-06T03:57:07.424Z,28.10
2022-09-06T03:57:30.224Z,33.25
2022-09-06T03:57:53.088Z,30.23
2022-09-06T03:58:16.808Z,32.47
2022-09-06T03:58:40.077Z,32.50
2022-09-06T03:59:03.024Z,33.80
2022-09-06T03:59:25.939Z,30.50
2022-09-06T03:59:48.705Z,36.85
2022-09-06T04:00:15.468Z,36.33
2022-09-06T04:00:38.308Z,36.70
2022-09-06T04:01:03.690Z,42.70
2022-09-06T04:01:26.649Z,43.85
2022-09-06T04:01:49.441Z,41.58
2022-09-06T04:02:12.358Z,46.67
2022-09-06T04:02:35.367Z,48.00
2022-09-06T04:03:01.591Z,57.05
2022-09-06T04:03:24.852Z,46.38
2022-09-06T04:03:47.713Z,61.78
2022-09-06T04:04:10.482Z,68.10
2022-09-06T04:04:33.554Z,98.28
2022-09-06T04:04:56.470Z,58.13
2022-09-06T04:05:19.248Z,135.68
2022-09-06T04:05:46.155Z,118.47
2022-09-06T04:06:09.301Z,63.33
2022-09-06T04:06:32.148Z,120.68
2022-09-06T04:06:54.935Z,72.13
2022-09-06T04:07:17.935Z,76.85
2022-09-06T04:07:40.752Z,80.22
2022-09-06T04:08:03.621Z,144.75
2022-09-06T04:08:26.464Z,143.48
2022-09-06T04:08:49.492Z,50.20
2022-09-06T04:09:12.276Z,86.80
2022-09-06T04:09:35.155Z,53.35
2022-09-06T04:09:57.999Z,55.67
2022-09-06T04:10:20.735Z,61.38
2022-09-06T04:10:43.469Z,67.97
2022-09-06T04:11:06.535Z,83.72
2022-09-06T04:11:29.400Z,55.90
2022-09-06T04:11:52.230Z,122.78
2022-09-06T04:12:15.102Z,101.45
2022-09-06T04:12:37.939Z,45.13
2022-09-06T04:13:00.690Z,69.88
2022-09-06T04:13:23.679Z,71.18
2022-09-06T04:13:46.576Z,56.67
2022-09-06T04:14:09.405Z,71.78
2022-09-06T04:14:32.210Z,115.45
2022-09-06T04:14:55.116Z,59.67
2022-09-06T04:15:19.372Z,62.03
2022-09-06T04:15:45.232Z,57.38
2022-09-06T04:16:08.066Z,49.70
2022-09-06T04:16:31.008Z,43.00
2022-09-06T04:16:54.015Z,49.10
2022-09-06T04:17:16.971Z,127.65
2022-09-06T04:17:39.737Z,71.93
2022-09-06T04:18:05.992Z,52.17
2022-09-06T04:18:31.470Z,51.53
2022-09-06T04:18:54.372Z,48.53
2022-09-06T04:19:17.276Z,50.55
2022-09-06T04:19:40.097Z,55.20
2022-09-06T04:20:03.661Z,56.88
2022-09-06T04:20:26.545Z,57.40
2022-09-06T04:20:49.585Z,53.55
2022-09-06T04:21:12.336Z,48.53
2022-09-06T04:21:35.945Z,47.65
2022-09-06T04:21:58.712Z,46.85
2022-09-06T04:22:21.497Z,45.33
2022-09-06T04:22:44.470Z,50.47
2022-09-06T04:23:07.775Z,56.42
2022-09-06T04:23:30.730Z,57.47
2022-09-06T04:23:53.545Z,48.65
2022-09-06T04:24:16.299Z,40.05
2022-09-06T04:24:39.296Z,47.78
2022-09-06T04:25:02.160Z,56.80
2022-09-06T04:25:25.020Z,55.45
2022-09-06T04:25:48.135Z,60.30
2022-09-06T04:26:13.174Z,63.50
2022-09-06T04:26:36.135Z,61.17
2022-09-06T04:26:58.932Z,49.00
2022-09-06T04:27:21.725Z,46.80
2022-09-06T04:27:44.678Z,51.53
2022-09-06T04:28:07.883Z,61.65
2022-09-06T04:28:31.053Z,53.97
2022-09-06T04:28:53.863Z,49.45
2022-09-06T04:29:17.238Z,50.55
2022-09-06T04:29:40.381Z,55.88
2022-09-06T04:30:03.325Z,39.03
2022-09-06T04:30:27.767Z,42.88
2022-09-06T04:30:52.946Z,56.60
2022-09-06T04:31:15.745Z,57.85
2022-09-06T04:31:38.582Z,55.60
2022-09-06T04:32:01.560Z,58.28
2022-09-06T04:32:24.467Z,60.45
2022-09-06T04:32:47.256Z,45.30
2022-09-06T04:33:10.065Z,93.68
2022-09-06T04:33:33.559Z,85.57
2022-09-06T04:33:56.417Z,60.97
2022-09-06T04:34:19.961Z,36.20
2022-09-06T04:34:42.800Z,50.90
2022-09-06T04:35:07.595Z,56.88
2022-09-06T04:35:30.381Z,47.75
2022-09-06T04:35:53.535Z,39.10
2022-09-06T04:36:16.331Z,37.50
2022-09-06T04:36:39.186Z,39.47
2022-09-06T04:37:02.044Z,45.95
2022-09-06T04:37:24.971Z,61.58
2022-09-06T04:37:47.795Z,48.05
2022-09-06T04:38:10.712Z,56.75
2022-09-06T04:38:36.256Z,49.03
2022-09-06T04:38:59.101Z,36.08
2022-09-06T04:39:21.871Z,36.88
2022-09-06T04:39:44.920Z,41.67
2022-09-06T04:40:08.342Z,37.30
2022-09-06T04:40:31.681Z,40.28
2022-09-06T04:40:57.821Z,56.33
2022-09-06T04:41:21.241Z,51.15
2022-09-06T04:41:44.306Z,37.17
2022-09-06T04:42:07.176Z,39.03
2022-09-06T04:42:30.137Z,44.33
2022-09-06T04:42:52.983Z,43.00
2022-09-06T04:43:15.806Z,50.45
2022-09-06T04:43:41.321Z,41.78
2022-09-06T04:44:04.122Z,41.08
2022-09-06T04:44:26.940Z,33.25
2022-09-06T04:44:49.783Z,40.60
2022-09-06T04:45:12.545Z,39.38
2022-09-06T04:45:36.856Z,42.05
2022-09-06T04:46:04.576Z,43.53
2022-09-06T04:46:28.600Z,58.53
2022-09-06T04:46:51.571Z,75.55
2022-09-06T04:47:15.442Z,50.17
2022-09-06T04:47:38.281Z,70.45
2022-09-06T04:48:01.166Z,74.10
2022-09-06T04:48:24.097Z,60.90
2022-09-06T04:48:47.251Z,56.53
2022-09-06T04:49:10.642Z,33.33
2022-09-06T04:49:33.481Z,40.72
2022-09-06T04:49:56.360Z,48.45
2022-09-06T04:50:19.308Z,74.72
2022-09-06T04:50:42.145Z,65.82
2022-09-06T04:51:05.185Z,75.50
2022-09-06T04:51:28.080Z,115.82
2022-09-06T04:51:51.007Z,76.82
2022-09-06T04:52:13.941Z,66.35
2022-09-06T04:52:36.744Z,65.93
2022-09-06T04:52:59.646Z,94.13
2022-09-06T04:53:22.606Z,83.05
2022-09-06T04:53:45.631Z,112.93
2022-09-06T04:54:08.531Z,84.38
2022-09-06T04:54:31.431Z,89.35
2022-09-06T04:54:54.286Z,83.40
2022-09-06T04:55:17.141Z,66.03
2022-09-06T04:55:40.022Z,77.43
2022-09-06T04:56:03.210Z,100.57
2022-09-06T04:56:26.891Z,60.92
2022-09-06T04:56:49.716Z,109.78
2022-09-06T04:57:12.536Z,85.25
2022-09-06T04:57:35.415Z,101.95
2022-09-06T04:58:00.286Z,96.32
2022-09-06T04:58:23.105Z,56.38
2022-09-06T04:58:46.842Z,51.17
2022-09-06T04:59:09.641Z,57.60
2022-09-06T04:59:33.021Z,70.82
2022-09-06T04:59:55.885Z,81.32
2022-09-06T05:00:18.981Z,59.92
2022-09-06T05:00:45.107Z,77.82
2022-09-06T05:01:07.955Z,116.35
2022-09-06T05:01:30.920Z,52.60
2022-09-06T05:01:53.829Z,45.05
2022-09-06T05:02:16.713Z,66.65
2022-09-06T05:02:39.682Z,71.70
2022-09-06T05:03:02.721Z,69.38
2022-09-06T05:03:25.804Z,98.47
2022-09-06T05:03:49.001Z,64.40
2022-09-06T05:04:12.267Z,57.50
2022-09-06T05:04:35.101Z,70.65
2022-09-06T05:04:57.884Z,86.13
2022-09-06T05:05:20.720Z,58.80
2022-09-06T05:05:43.576Z,60.25
2022-09-06T05:06:07.543Z,58.50
2022-09-06T05:06:30.358Z,104.03
2022-09-06T05:07:01.341Z,33.05
2022-09-06T05:07:24.270Z,85.95
2022-09-06T05:07:47.087Z,64.18
2022-09-06T05:08:10.071Z,34.78
2022-09-06T05:08:32.901Z,39.83
2022-09-06T05:08:55.660Z,32.55
2022-09-06T05:09:18.450Z,34.60
2022-09-06T05:09:41.320Z,27.30
2022-09-06T05:10:04.631Z,27.35
2022-09-06T05:10:27.436Z,26.88
2022-09-06T05:10:52.710Z,26.50
2022-09-06T05:11:15.581Z,25.77
2022-09-06T05:11:38.420Z,26.25
2022-09-06T05:12:01.243Z,30.17
2022-09-06T05:12:24.007Z,28.35
2022-09-06T05:12:48.787Z,51.97
2022-09-06T05:13:11.677Z,45.90
2022-09-06T05:13:34.601Z,33.13
2022-09-06T05:13:57.365Z,28.35
2022-09-06T05:14:20.211Z,28.13